Time;durP1;ratioP1;P1;durP2;ratioP2;P2;SDS_P1;SDS_P2;PMS_P1;PMS_P2;Temp;Humidity;BMP_temperature;BMP_pressure;BME280_temperature;BME280_humidity;BME280_pressure;Samples;Min_cycle;Max_cycle;Signal;HPM_P1;HPM_P2
2022/04/19 00:00:36;;;;;;;1.50;1.40;;;24.20;48.90;;;;;;5052944;28;20433;-91
2022/04/19 00:03:04;;;;;;;2.20;2.00;;;24.20;48.90;;;;;;5052535;28;20437;-83
2022/04/19 00:05:32;;;;;;;1.60;1.50;;;24.20;48.90;;;;;;5052871;28;20446;-83
2022/04/19 00:07:58;;;;;;;2.03;1.63;;;24.20;49.00;;;;;;5052624;28;20461;-83
2022/04/19 00:10:28;;;;;;;1.90;1.70;;;24.20;49.00;;;;;;5052693;28;20806;-83
2022/04/19 00:12:55;;;;;;;1.30;1.20;;;24.20;49.00;;;;;;5052517;28;20474;-83
2022/04/19 00:15:23;;;;;;;1.70;1.60;;;24.20;49.00;;;;;;5052629;28;20438;-83
2022/04/19 00:17:50;;;;;;;1.97;1.60;;;24.20;49.10;;;;;;5052691;28;20441;-83
2022/04/19 00:20:17;;;;;;;2.40;1.93;;;24.20;49.10;;;;;;5052897;28;20442;-89
2022/04/19 00:22:44;;;;;;;2.07;1.60;;;24.20;49.00;;;;;;5052700;28;20984;-83
2022/04/19 00:25:11;;;;;;;1.87;1.77;;;24.20;49.00;;;;;;5052469;28;20800;-85
2022/04/19 00:27:38;;;;;;;1.60;1.50;;;24.10;49.50;;;;;;5052499;28;20448;-84
2022/04/19 00:30:05;;;;;;;1.97;1.87;;;24.10;48.90;;;;;;5052545;28;20836;-84
2022/04/19 00:32:33;;;;;;;1.73;1.60;;;24.10;48.90;;;;;;5052611;28;20437;-84
2022/04/19 00:35:00;;;;;;;1.60;1.50;;;24.10;48.90;;;;;;5052525;28;20805;-84
2022/04/19 00:37:27;;;;;;;1.60;1.50;;;24.20;49.00;;;;;;5052330;28;20477;-88
2022/04/19 00:39:57;;;;;;;1.73;1.63;;;24.10;48.90;;;;;;5052405;28;20861;-83
2022/04/19 00:42:26;;;;;;;1.70;1.60;;;24.10;49.00;;;;;;5052270;28;20477;-84
2022/04/19 00:44:53;;;;;;;2.10;1.90;;;24.10;48.90;;;;;;5054004;28;20496;-84
2022/04/19 00:47:20;;;;;;;1.87;1.60;;;24.10;48.90;;;;;;5056148;28;20520;-83
2022/04/19 00:49:48;;;;;;;1.73;1.63;;;24.10;48.90;;;;;;5056011;28;20474;-84
2022/04/19 00:52:16;;;;;;;2.67;1.60;;;24.10;49.00;;;;;;5056052;28;20437;-84
2022/04/19 00:54:43;;;;;;;1.83;1.73;;;24.10;49.00;;;;;;5056145;28;21015;-84
2022/04/19 00:57:11;;;;;;;3.40;2.37;;;24.10;49.00;;;;;;5055639;28;20477;-83
2022/04/19 00:59:38;;;;;;;1.90;1.80;;;24.10;48.90;;;;;;5055917;28;20442;-84
2022/04/19 01:02:05;;;;;;;2.10;2.00;;;24.20;49.10;;;;;;5055879;28;20529;-84
2022/04/19 01:04:32;;;;;;;1.60;1.50;;;24.10;48.90;;;;;;5056232;28;20513;-85
2022/04/19 01:07:01;;;;;;;2.27;2.10;;;24.10;49.00;;;;;;5055620;28;20828;-84
2022/04/19 01:09:29;;;;;;;1.67;1.53;;;24.10;49.00;;;;;;5055621;28;20450;-84
2022/04/19 01:14:41;;;;;;;2.40;2.20;;;24.10;49.00;;;;;;5055551;28;20483;-85
2022/04/19 01:17:08;;;;;;;1.50;1.40;;;24.10;49.00;;;;;;5055479;28;20444;-84
2022/04/19 01:19:38;;;;;;;3.40;2.13;;;24.10;49.10;;;;;;5038151;28;20788;-85
2022/04/19 01:22:07;;;;;;;1.97;1.87;;;24.10;48.90;;;;;;5055332;28;20434;-84
2022/04/19 01:24:36;;;;;;;1.93;1.83;;;24.10;48.90;;;;;;5037663;28;20843;-85
2022/04/19 01:27:03;;;;;;;1.80;1.70;;;24.20;49.10;;;;;;5037846;28;20445;-85
2022/04/19 01:29:30;;;;;;;2.03;1.90;;;24.10;48.90;;;;;;5055229;28;20465;-84
2022/04/19 01:31:57;;;;;;;1.73;1.63;;;24.10;49.00;;;;;;5055099;28;20860;-84
2022/04/19 01:34:24;;;;;;;1.60;1.40;;;24.10;48.90;;;;;;5055038;28;20482;-85
2022/04/19 01:36:51;;;;;;;2.20;2.00;;;24.10;48.90;;;;;;5054923;28;20465;-85
2022/04/19 01:40:16;;;;;;;2.13;1.90;;;24.10;49.00;;;;;;5054959;28;20441;-85
2022/04/19 01:42:06;;;;;;;2.07;1.87;;;24.10;49.00;;;;;;5054870;28;20757;-84
2022/04/19 01:44:34;;;;;;;1.70;1.60;;;24.10;49.00;;;;;;5054817;28;20799;-86
2022/04/19 01:47:01;;;;;;;1.80;1.70;;;24.10;49.00;;;;;;5054836;28;20492;-85
2022/04/19 01:49:28;;;;;;;1.70;1.60;;;24.10;49.10;;;;;;5055009;28;20444;-85
2022/04/19 01:51:55;;;;;;;1.77;1.67;;;24.10;49.10;;;;;;5054786;28;20438;-84
2022/04/19 01:54:23;;;;;;;1.80;1.70;;;24.10;49.00;;;;;;5054812;28;20848;-83
2022/04/19 01:56:50;;;;;;;2.07;1.87;;;24.10;49.00;;;;;;5054003;28;20480;-83
2022/04/19 01:59:17;;;;;;;2.07;1.80;;;24.20;49.10;;;;;;5054850;28;20939;-84
2022/04/19 02:01:44;;;;;;;1.77;1.67;;;24.10;49.00;;;;;;5054463;28;20442;-83
2022/04/19 02:04:10;;;;;;;2.27;1.90;;;24.10;49.00;;;;;;5054516;28;20450;-84
2022/04/19 02:06:39;;;;;;;2.13;1.93;;;24.10;48.90;;;;;;5054348;28;20460;-83
2022/04/19 02:09:05;;;;;;;1.57;1.47;;;24.10;48.90;;;;;;5054455;28;20442;-90
2022/04/19 02:11:34;;;;;;;1.97;1.87;;;24.10;48.90;;;;;;5054311;28;20442;-83
2022/04/19 02:14:00;;;;;;;1.83;1.43;;;24.10;48.90;;;;;;5054437;28;20477;-84
2022/04/19 02:16:27;;;;;;;2.00;1.80;;;24.10;48.90;;;;;;5053989;28;20455;-91
2022/04/19 02:18:54;;;;;;;1.80;1.70;;;24.10;48.90;;;;;;5054374;28;20454;-87
2022/04/19 02:21:21;;;;;;;1.83;1.73;;;24.10;48.80;;;;;;5054404;28;20446;-84
2022/04/19 02:23:47;;;;;;;2.30;2.20;;;24.10;48.90;;;;;;5054225;28;20475;-84
2022/04/19 02:26:14;;;;;;;2.00;1.80;;;24.10;48.90;;;;;;5054366;28;20453;-84
2022/04/19 02:28:46;;;;;;;2.43;2.23;;;24.10;48.90;;;;;;5054122;28;20468;-84
2022/04/19 02:31:13;;;;;;;2.00;1.80;;;24.10;48.90;;;;;;5058716;28;20477;-91
2022/04/19 02:33:40;;;;;;;2.17;2.07;;;24.10;48.90;;;;;;5066451;28;20508;-85
2022/04/19 02:36:07;;;;;;;1.80;1.70;;;24.10;48.80;;;;;;5063973;28;20444;-84
2022/04/19 02:38:35;;;;;;;2.40;2.20;;;24.10;48.90;;;;;;5061023;28;20456;-92
2022/04/19 02:41:02;;;;;;;2.37;1.60;;;24.10;48.80;;;;;;5029622;28;20437;-84
2022/04/19 02:43:30;;;;;;;2.40;2.20;;;24.10;48.90;;;;;;5052429;28;20438;-92
2022/04/19 02:45:58;;;;;;;1.70;1.60;;;24.10;48.90;;;;;;5042881;28;20441;-91
2022/04/19 02:48:25;;;;;;;1.90;1.73;;;24.10;48.80;;;;;;5044549;28;20448;-87
2022/04/19 02:50:52;;;;;;;1.83;1.73;;;24.00;48.80;;;;;;5044397;28;20435;-90
2022/04/19 02:53:18;;;;;;;1.93;1.77;;;24.10;48.80;;;;;;5044445;28;20438;-85
2022/04/19 02:55:45;;;;;;;1.60;1.50;;;24.00;48.70;;;;;;5046194;28;20808;-92
2022/04/19 02:58:12;;;;;;;2.30;2.10;;;24.00;48.80;;;;;;5045000;28;20476;-89
2022/04/19 03:00:39;;;;;;;2.03;1.90;;;24.00;48.80;;;;;;5044576;28;20435;-91
2022/04/19 03:03:08;;;;;;;2.20;2.03;;;24.00;48.80;;;;;;5058158;28;20826;-92
2022/04/19 03:05:38;;;;;;;1.80;1.70;;;24.00;48.80;;;;;;5060583;28;20449;-90
2022/04/19 03:08:05;;;;;;;1.97;1.83;;;24.00;48.80;;;;;;5061527;28;20466;-89
2022/04/19 03:10:32;;;;;;;2.20;2.07;;;24.00;48.80;;;;;;5064251;28;20433;-93
2022/04/19 03:12:58;;;;;;;1.90;1.80;;;24.00;48.80;;;;;;5068333;28;20437;-93
2022/04/19 03:15:27;;;;;;;2.20;2.10;;;24.00;48.80;;;;;;5063513;28;20476;-86
2022/04/19 03:17:54;;;;;;;1.70;1.60;;;24.00;48.80;;;;;;5046835;28;20466;-89
2022/04/19 03:20:22;;;;;;;2.30;2.20;;;24.00;48.80;;;;;;5024141;28;20442;-90
2022/04/19 03:28:17;;;;;;;2.07;1.97;;;24.00;48.90;;;;;;5041386;28;20828;-83
2022/04/19 03:30:44;;;;;;;1.97;1.87;;;24.00;48.90;;;;;;5042298;28;20442;-83
2022/04/19 03:33:11;;;;;;;1.97;1.87;;;24.00;48.90;;;;;;5024424;28;20437;-83
2022/04/19 03:35:40;;;;;;;2.00;1.90;;;24.00;48.80;;;;;;5043456;28;20489;-84
2022/04/19 03:38:08;;;;;;;2.20;2.10;;;24.00;48.90;;;;;;5042955;28;20915;-86
2022/04/19 03:40:35;;;;;;;2.23;2.07;;;24.00;48.80;;;;;;5042659;28;20964;-90
2022/04/19 03:43:02;;;;;;;2.20;2.00;;;24.00;48.80;;;;;;5047866;28;20438;-85
2022/04/19 03:45:29;;;;;;;2.20;2.10;;;24.00;48.80;;;;;;5025341;28;20445;-86
2022/04/19 03:47:56;;;;;;;2.47;2.10;;;24.10;48.90;;;;;;5048316;28;20465;-84
2022/04/19 03:50:25;;;;;;;2.07;1.97;;;24.00;48.80;;;;;;5043777;28;20446;-84
2022/04/19 03:52:53;;;;;;;2.17;2.00;;;24.00;48.80;;;;;;5042139;28;20442;-84
2022/04/19 03:55:20;;;;;;;2.30;2.20;;;24.00;48.80;;;;;;5040251;28;20485;-92
2022/04/19 03:57:47;;;;;;;1.80;1.70;;;24.00;48.70;;;;;;5038130;28;20476;-84
2022/04/19 04:00:14;;;;;;;2.30;2.10;;;24.00;48.80;;;;;;5037153;28;20458;-90
2022/04/19 04:02:41;;;;;;;2.17;1.97;;;24.00;48.80;;;;;;5032980;28;20446;-84
2022/04/19 04:05:08;;;;;;;1.87;1.73;;;24.00;48.70;;;;;;5032636;28;20439;-89
2022/04/19 04:07:38;;;;;;;2.07;1.97;;;24.00;48.70;;;;;;5032869;28;20492;-85
2022/04/19 04:10:07;;;;;;;2.23;2.13;;;23.90;48.70;;;;;;5033699;28;20541;-86
2022/04/19 04:12:34;;;;;;;2.77;2.57;;;23.90;48.70;;;;;;5016287;28;20457;-85
2022/04/19 04:15:01;;;;;;;2.70;2.50;;;23.80;48.60;;;;;;5033855;28;20494;-86
2022/04/19 04:17:28;;;;;;;2.20;2.00;;;23.90;48.60;;;;;;5033719;28;20447;-92
2022/04/19 04:19:55;;;;;;;2.50;2.30;;;23.90;48.60;;;;;;5018965;28;20450;-85
2022/04/19 04:22:22;;;;;;;2.60;2.40;;;24.00;48.50;;;;;;5035613;28;20435;-90
2022/04/19 04:24:49;;;;;;;2.17;2.00;;;23.90;48.70;;;;;;5037297;28;20456;-92
2022/04/19 04:27:17;;;;;;;2.30;2.20;;;23.90;48.70;;;;;;5037971;28;20451;-85
2022/04/19 04:29:44;;;;;;;2.30;2.10;;;23.90;48.70;;;;;;5037369;28;20457;-86
2022/04/19 04:32:11;;;;;;;2.50;2.20;;;24.00;48.80;;;;;;5036736;28;20930;-86
2022/04/19 04:34:37;;;;;;;2.77;2.20;;;24.00;48.70;;;;;;5036605;28;20486;-88
2022/04/19 04:37:05;;;;;;;2.40;2.20;;;24.00;48.70;;;;;;5036651;28;20485;-85
2022/04/19 04:39:32;;;;;;;3.00;2.53;;;24.00;48.70;;;;;;5036979;28;20457;-85
2022/04/19 04:41:58;;;;;;;2.00;1.90;;;24.00;48.70;;;;;;5036501;28;20929;-85
2022/04/19 04:44:27;;;;;;;2.27;2.17;;;23.90;48.70;;;;;;5036493;28;20451;-86
2022/04/19 04:49:39;;;;;;;2.87;2.67;;;24.00;48.80;;;;;;5036800;28;20469;-86
2022/04/19 04:52:07;;;;;;;2.23;2.03;;;24.00;48.90;;;;;;5036509;28;20438;-86
2022/04/19 04:54:34;;;;;;;2.40;2.20;;;23.90;48.80;;;;;;5036123;28;20505;-88
2022/04/19 04:57:02;;;;;;;2.57;2.37;;;24.00;48.90;;;;;;5036013;28;20592;-85
2022/04/19 04:59:30;;;;;;;2.63;2.43;;;24.00;48.90;;;;;;5036059;28;20450;-85
2022/04/19 05:01:57;;;;;;;1.83;1.73;;;24.00;48.80;;;;;;5036099;28;20500;-88
2022/04/19 05:04:24;;;;;;;3.00;2.80;;;24.00;48.90;;;;;;5035791;28;20443;-92
2022/04/19 05:06:51;;;;;;;2.27;2.07;;;24.10;48.90;;;;;;5035820;28;20517;-86
2022/04/19 05:09:18;;;;;;;2.37;2.17;;;23.90;48.50;;;;;;5035607;28;20449;-86
2022/04/19 05:11:46;;;;;;;2.40;2.20;;;23.90;48.90;;;;;;5001986;28;20794;-86
2022/04/19 05:14:14;;;;;;;2.30;2.20;;;23.90;49.00;;;;;;5035644;28;20438;-87
2022/04/19 05:16:42;;;;;;;2.47;2.27;;;23.90;49.00;;;;;;5035467;28;20446;-87
2022/04/19 05:19:09;;;;;;;2.70;2.50;;;23.90;48.90;;;;;;5034882;28;20447;-88
2022/04/19 05:21:38;;;;;;;2.10;1.90;;;24.00;49.20;;;;;;5035789;28;20439;-87
2022/04/19 05:24:05;;;;;;;2.73;2.53;;;23.90;49.20;;;;;;5035304;28;20439;-86
2022/04/19 05:26:32;;;;;;;3.00;2.80;;;23.90;49.20;;;;;;5035288;28;20465;-88
2022/04/19 05:28:59;;;;;;;2.93;2.10;;;23.90;49.20;;;;;;5034698;28;20457;-88
2022/04/19 05:31:26;;;;;;;2.57;2.30;;;24.00;49.20;;;;;;5034865;28;20447;-85
2022/04/19 05:33:54;;;;;;;1.93;1.83;;;24.00;49.20;;;;;;5035169;28;20450;-86
2022/04/19 05:36:22;;;;;;;2.07;1.97;;;24.00;49.20;;;;;;5035362;28;21038;-86
2022/04/19 05:38:52;;;;;;;2.50;2.30;;;24.00;49.30;;;;;;5035361;28;20468;-86
2022/04/19 05:41:19;;;;;;;2.47;2.27;;;24.00;49.20;;;;;;5017021;28;20449;-86
2022/04/19 05:43:47;;;;;;;2.20;2.10;;;24.00;49.40;;;;;;5034956;28;20435;-83
2022/04/19 05:46:13;;;;;;;2.57;2.37;;;24.00;49.20;;;;;;5035334;28;20442;-86
2022/04/19 05:48:40;;;;;;;2.53;2.33;;;23.90;49.20;;;;;;5035125;28;20423;-85
2022/04/19 05:51:08;;;;;;;2.40;2.20;;;23.90;49.40;;;;;;5034887;28;20478;-85
2022/04/19 05:53:35;;;;;;;5.70;1.90;;;23.90;49.40;;;;;;5034792;28;20446;-84
2022/04/19 05:56:02;;;;;;;2.20;2.00;;;23.90;49.50;;;;;;5035959;28;20493;-86
2022/04/19 05:58:29;;;;;;;2.50;2.30;;;23.90;49.60;;;;;;5055126;28;20445;-86
2022/04/19 06:00:55;;;;;;;3.07;2.30;;;23.90;50.10;;;;;;5054782;28;20441;-85
2022/04/19 06:06:08;;;;;;;2.30;2.20;;;24.00;49.60;;;;;;5054585;28;20429;-85
2022/04/19 06:08:34;;;;;;;3.00;2.80;;;24.00;49.50;;;;;;5054568;28;20438;-86
2022/04/19 06:11:02;;;;;;;2.83;2.40;;;23.90;49.60;;;;;;5055060;28;20434;-84
2022/04/19 06:13:28;;;;;;;1.93;1.83;;;23.90;49.50;;;;;;5054514;28;20492;-84
2022/04/19 06:15:55;;;;;;;2.73;2.53;;;24.00;50.00;;;;;;5047889;28;20493;-84
2022/04/19 06:18:22;;;;;;;2.17;2.07;;;24.00;50.00;;;;;;5054288;28;20442;-84
2022/04/19 06:20:53;;;;;;;4.10;1.97;;;24.00;50.00;;;;;;5054176;28;20452;-84
2022/04/19 06:23:21;;;;;;;2.10;1.90;;;24.00;50.00;;;;;;5054596;28;20434;-88
2022/04/19 06:25:48;;;;;;;3.67;2.40;;;24.00;50.00;;;;;;5054292;28;20430;-85
2022/04/19 06:28:17;;;;;;;2.47;2.27;;;24.00;50.00;;;;;;5036531;28;20450;-88
2022/04/19 06:30:44;;;;;;;2.33;2.07;;;24.00;50.20;;;;;;5054149;28;20484;-87
2022/04/19 06:33:11;;;;;;;3.33;2.40;;;24.00;50.10;;;;;;5053864;28;20850;-85
2022/04/19 06:35:38;;;;;;;2.20;2.10;;;24.10;50.30;;;;;;5053680;28;20485;-88
2022/04/19 06:38:05;;;;;;;2.53;2.13;;;24.00;50.20;;;;;;5054010;28;20457;-87
2022/04/19 06:40:33;;;;;;;2.50;2.30;;;23.90;49.90;;;;;;5053964;28;20533;-86
2022/04/19 06:43:00;;;;;;;2.20;2.10;;;23.90;49.60;;;;;;5053286;28;20442;-86
2022/04/19 06:45:28;;;;;;;2.90;2.70;;;24.00;49.90;;;;;;5053507;28;20953;-86
2022/04/19 06:47:58;;;;;;;4.33;2.93;;;24.00;49.90;;;;;;5053336;28;20454;-84
2022/04/19 06:50:25;;;;;;;5.97;3.37;;;24.00;49.10;;;;;;5053755;28;20473;-88
2022/04/19 06:52:52;;;;;;;2.73;2.50;;;23.90;48.50;;;;;;5053580;28;20924;-85
2022/04/19 06:55:20;;;;;;;2.83;2.63;;;23.90;48.80;;;;;;5045359;28;20539;-83
2022/04/19 06:57:48;;;;;;;4.30;2.50;;;23.90;49.40;;;;;;5052866;28;20876;-84
2022/04/19 07:00:16;;;;;;;4.20;3.23;;;23.80;49.40;;;;;;5052694;28;20445;-84
2022/04/19 07:02:44;;;;;;;4.00;3.60;;;23.80;48.80;;;;;;5053507;28;20457;-86
2022/04/19 07:05:11;;;;;;;3.40;3.10;;;23.90;48.70;;;;;;5035528;28;20446;-84
2022/04/19 07:07:42;;;;;;;4.40;2.90;;;23.90;48.80;;;;;;5053332;28;20461;-84
2022/04/19 07:10:10;;;;;;;3.67;2.80;;;23.90;48.70;;;;;;5053308;28;20453;-84
2022/04/19 07:12:37;;;;;;;3.50;3.20;;;23.90;48.60;;;;;;5053350;28;20486;-84
2022/04/19 07:15:06;;;;;;;2.70;2.50;;;23.90;48.10;;;;;;5053429;28;20477;-85
2022/04/19 07:17:37;;;;;;;3.30;3.00;;;23.90;48.30;;;;;;5035216;28;20437;-85
2022/04/19 07:28:18;;;;;;;3.53;3.23;;;23.80;47.80;;;;;;5035250;28;20856;-83
2022/04/19 07:30:46;;;;;;;2.50;2.30;;;23.80;48.10;;;;;;5035658;28;20443;-85
2022/04/19 07:33:13;;;;;;;4.37;2.20;;;23.80;48.40;;;;;;5050238;28;20975;-85
2022/04/19 07:35:40;;;;;;;3.47;2.03;;;23.90;48.70;;;;;;5035513;28;20511;-84
2022/04/19 07:38:07;;;;;;;2.00;1.90;;;23.90;48.90;;;;;;5053053;28;20504;-83
2022/04/19 07:40:35;;;;;;;2.60;2.10;;;23.90;49.30;;;;;;5052795;28;20434;-85
2022/04/19 07:43:02;;;;;;;4.53;2.07;;;24.00;49.30;;;;;;5044703;28;20445;-86
2022/04/19 07:45:29;;;;;;;2.70;2.20;;;24.00;49.60;;;;;;5030754;28;20597;-85
2022/04/19 07:47:57;;;;;;;2.23;1.90;;;24.00;49.50;;;;;;5031169;28;20435;-82
2022/04/19 07:50:24;;;;;;;2.10;1.77;;;24.10;49.70;;;;;;5030975;28;20430;-83
2022/04/19 07:52:51;;;;;;;3.23;2.20;;;24.10;49.60;;;;;;5030867;28;20435;-82
2022/04/19 07:55:17;;;;;;;2.97;1.77;;;24.10;49.50;;;;;;5034664;28;20482;-84
2022/04/19 07:57:44;;;;;;;4.10;2.10;;;24.10;49.50;;;;;;5034899;28;20485;-83
2022/04/19 08:00:13;;;;;;;2.53;1.90;;;24.10;49.60;;;;;;5035532;28;20442;-83
2022/04/19 08:02:40;;;;;;;1.60;1.50;;;24.10;49.60;;;;;;5035605;28;20450;-83
2022/04/19 08:05:10;;;;;;;2.57;2.37;;;24.10;49.70;;;;;;5036739;28;20482;-83
2022/04/19 08:07:36;;;;;;;1.57;1.47;;;24.20;49.80;;;;;;5036613;28;20462;-84
2022/04/19 08:10:04;;;;;;;1.70;1.60;;;24.10;49.70;;;;;;5036520;28;20455;-83
2022/04/19 08:12:32;;;;;;;2.33;2.03;;;24.20;49.90;;;;;;5036538;28;20450;-82
2022/04/19 08:14:58;;;;;;;3.23;1.83;;;24.20;49.90;;;;;;5035775;28;20445;-82
2022/04/19 08:17:25;;;;;;;2.00;1.70;;;24.20;50.00;;;;;;5036128;28;20457;-83
2022/04/19 08:19:52;;;;;;;1.60;1.50;;;24.20;50.00;;;;;;5036492;28;20461;-85
2022/04/19 08:22:21;;;;;;;3.13;2.10;;;24.20;50.00;;;;;;5036350;28;20446;-83
2022/04/19 08:24:47;;;;;;;1.83;1.30;;;24.20;50.10;;;;;;5036314;28;20537;-83
2022/04/19 08:27:16;;;;;;;1.60;1.50;;;24.20;50.10;;;;;;5036313;28;20934;-85
2022/04/19 08:29:44;;;;;;;1.90;1.77;;;24.20;50.10;;;;;;5036273;28;20530;-84
2022/04/19 08:32:10;;;;;;;1.90;1.70;;;24.30;50.30;;;;;;5036118;28;20856;-86
2022/04/19 08:34:38;;;;;;;4.13;1.43;;;24.30;50.30;;;;;;5036403;28;20446;-85
2022/04/19 08:37:05;;;;;;;1.50;1.40;;;24.30;50.40;;;;;;5035896;28;20551;-83
2022/04/19 08:39:33;;;;;;;1.73;1.60;;;24.30;50.40;;;;;;5036358;28;20445;-86
2022/04/19 08:42:00;;;;;;;1.60;1.50;;;24.40;50.50;;;;;;5035787;28;21007;-86
2022/04/19 08:44:27;;;;;;;2.03;1.70;;;24.40;50.50;;;;;;5036109;28;20442;-84
2022/04/19 08:46:55;;;;;;;1.97;1.80;;;24.40;50.60;;;;;;5035926;28;20431;-84
2022/04/19 08:49:22;;;;;;;3.73;1.77;;;24.40;50.60;;;;;;5035830;28;20447;-85
2022/04/19 08:51:49;;;;;;;1.97;1.87;;;24.40;50.70;;;;;;5035917;28;20441;-87
2022/04/19 08:59:46;;;;;;;1.50;1.40;;;24.50;50.70;;;;;;5035199;28;20438;-85
2022/04/19 09:02:24;;;;;;;2.30;1.80;;;24.50;50.70;;;;;;5035942;28;20435;-91
2022/04/19 09:04:52;;;;;;;1.63;1.53;;;24.60;50.80;;;;;;5034948;28;20454;-82
2022/04/19 09:07:20;;;;;;;1.80;1.70;;;24.60;50.20;;;;;;5027714;28;21055;-84
2022/04/19 09:09:59;;;;;;;1.63;1.53;;;24.60;49.90;;;;;;5036045;28;20451;-91
2022/04/19 09:12:28;;;;;;;2.03;1.40;;;24.70;50.60;;;;;;5036712;28;20481;-83
2022/04/19 09:14:58;;;;;;;1.43;1.33;;;24.70;50.80;;;;;;5042391;28;20458;-84
2022/04/19 09:17:33;;;;;;;1.70;1.60;;;24.80;51.00;;;;;;5035999;28;20855;-88
2022/04/19 09:20:11;;;;;;;1.50;1.40;;;24.80;50.80;;;;;;5020388;28;20434;-83
2022/04/19 09:22:38;;;;;;;1.73;1.60;;;24.90;50.80;;;;;;5035556;28;20472;-85
2022/04/19 09:25:15;;;;;;;1.67;1.57;;;24.80;49.40;;;;;;5036841;28;20940;-89
2022/04/19 09:27:43;;;;;;;1.87;1.77;;;24.90;49.90;;;;;;5035585;28;20445;-85
2022/04/19 09:30:17;;;;;;;1.50;1.40;;;24.80;50.30;;;;;;5034761;28;20446;-86
2022/04/19 09:33:03;;;;;;;1.90;1.60;;;24.90;50.70;;;;;;5035034;28;20852;-85
2022/04/19 09:35:30;;;;;;;1.43;1.33;;;25.00;50.80;;;;;;5034814;28;20469;-85
2022/04/19 09:37:57;;;;;;;1.60;1.50;;;25.00;50.90;;;;;;5035057;28;20462;-84
2022/04/19 09:40:29;;;;;;;2.80;1.50;;;25.00;50.90;;;;;;5041386;28;20415;-86
2022/04/19 09:42:57;;;;;;;1.70;1.40;;;25.00;50.70;;;;;;5019098;28;20930;-85
2022/04/19 09:45:26;;;;;;;2.47;1.70;;;25.10;50.90;;;;;;5036462;28;20476;-85
2022/04/19 09:47:54;;;;;;;2.40;1.60;;;25.10;50.90;;;;;;5034889;28;20439;-85
2022/04/19 09:50:21;;;;;;;2.70;1.43;;;25.20;51.00;;;;;;5026720;28;20449;-85
2022/04/19 09:52:51;;;;;;;1.47;1.23;;;25.20;51.00;;;;;;5034996;28;20497;-85
2022/04/19 09:55:19;;;;;;;1.73;1.47;;;25.30;51.00;;;;;;5034964;28;20952;-86
2022/04/19 09:57:49;;;;;;;3.23;1.30;;;25.30;51.20;;;;;;5016923;28;20500;-85
2022/04/19 10:00:19;;;;;;;2.60;1.27;;;25.30;51.00;;;;;;5035105;28;20821;-84
2022/04/19 10:08:19;;;;;;;1.60;1.40;;;25.40;51.00;;;;;;5034943;28;20557;-84
2022/04/19 10:10:47;;;;;;;1.53;1.40;;;25.40;51.10;;;;;;5034874;28;20449;-85
2022/04/19 10:13:14;;;;;;;2.70;1.10;;;25.50;51.10;;;;;;5034688;28;20447;-85
2022/04/19 10:15:42;;;;;;;2.07;1.20;;;25.50;51.30;;;;;;5034838;28;20443;-85
2022/04/19 10:18:10;;;;;;;1.57;1.20;;;25.50;51.20;;;;;;5034720;28;20470;-85
2022/04/19 10:20:40;;;;;;;1.60;1.40;;;25.50;51.20;;;;;;5034620;28;20434;-86
2022/04/19 10:23:09;;;;;;;3.70;1.60;;;25.50;51.30;;;;;;5034510;28;20445;-83
2022/04/19 10:25:43;;;;;;;1.93;1.50;;;25.50;51.10;;;;;;5034525;28;20450;-85
2022/04/19 10:28:11;;;;;;;1.80;1.70;;;25.50;49.10;;;;;;5034369;28;20446;-85
2022/04/19 10:30:40;;;;;;;1.60;1.50;;;25.40;48.30;;;;;;5034495;28;20434;-84
2022/04/19 10:33:44;;;;;;;2.17;1.60;;;25.40;48.30;;;;;;5016795;28;20447;-84
2022/04/19 10:36:13;;;;;;;4.40;1.27;;;25.40;48.50;;;;;;5031605;28;20528;-85
2022/04/19 10:38:39;;;;;;;2.17;1.60;;;25.30;49.50;;;;;;5016727;28;20438;-85
2022/04/19 10:41:06;;;;;;;1.63;1.13;;;25.40;50.60;;;;;;5033939;28;20450;-87
2022/04/19 10:43:33;;;;;;;2.10;1.27;;;25.40;50.80;;;;;;5033957;28;20797;-85
2022/04/19 10:46:21;;;;;;;2.27;1.30;;;25.50;51.00;;;;;;5033700;28;20457;-85
2022/04/19 10:49:24;;;;;;;1.40;1.10;;;25.50;51.00;;;;;;5034161;28;20447;-85
2022/04/19 10:51:52;;;;;;;1.57;1.30;;;25.60;51.20;;;;;;5033789;28;20533;-85
2022/04/19 10:54:52;;;;;;;1.73;1.17;;;25.60;51.30;;;;;;5034048;28;20980;-85
2022/04/19 11:00:00;;;;;;;1.50;1.30;;;25.70;51.30;;;;;;5032821;28;20435;-84
2022/04/19 11:02:37;;;;;;;1.27;1.00;;;25.70;51.30;;;;;;5033769;28;20458;-85
2022/04/19 11:05:29;;;;;;;1.57;1.30;;;25.80;50.80;;;;;;5033839;28;20449;-86
2022/04/19 11:07:56;;;;;;;1.73;1.20;;;25.80;51.40;;;;;;5033351;28;20550;-86
2022/04/19 11:10:38;;;;;;;1.33;1.10;;;25.90;51.50;;;;;;5033807;28;20466;-86
2022/04/19 11:13:04;;;;;;;1.10;1.00;;;25.90;51.40;;;;;;5033869;28;20435;-86
2022/04/19 11:15:38;;;;;;;1.37;1.20;;;25.90;51.50;;;;;;5033390;28;20518;-86
2022/04/19 11:18:23;;;;;;;1.77;1.20;;;26.00;51.50;;;;;;5051767;28;20478;-87
2022/04/19 11:20:52;;;;;;;1.50;1.40;;;26.00;51.40;;;;;;5052370;28;20446;-86
2022/04/19 11:23:21;;;;;;;1.93;1.27;;;26.00;51.40;;;;;;5053255;28;20442;-87
2022/04/19 11:25:49;;;;;;;1.83;1.20;;;26.10;51.50;;;;;;5053400;28;20453;-86
2022/04/19 11:28:20;;;;;;;3.07;1.30;;;26.10;51.40;;;;;;5044567;28;20821;-87
2022/04/19 11:31:16;;;;;;;1.50;1.10;;;26.10;51.40;;;;;;5017151;28;20453;-86
2022/04/19 11:33:43;;;;;;;1.30;1.20;;;26.20;51.40;;;;;;5031421;28;20994;-87
2022/04/19 11:36:13;;;;;;;1.83;0.90;;;26.10;51.50;;;;;;5030991;28;20466;-87
2022/04/19 11:38:43;;;;;;;2.80;1.30;;;26.20;51.50;;;;;;5032748;28;20538;-87
2022/04/19 11:46:46;;;;;;;1.50;0.97;;;26.20;51.60;;;;;;5042341;28;20925;-87
2022/04/19 11:49:31;;;;;;;1.10;1.00;;;26.20;51.70;;;;;;5041423;28;20474;-85
2022/04/19 11:52:01;;;;;;;1.10;0.90;;;26.20;51.70;;;;;;5040602;28;20438;-86
2022/04/19 11:54:30;;;;;;;1.10;0.90;;;26.20;51.70;;;;;;5040502;28;20465;-86
2022/04/19 11:56:59;;;;;;;1.10;1.00;;;26.20;51.70;;;;;;5041407;28;20489;-87
2022/04/19 11:59:28;;;;;;;1.40;1.13;;;26.20;51.80;;;;;;5042955;28;20439;-87
2022/04/19 12:01:55;;;;;;;1.53;1.10;;;26.20;51.80;;;;;;5041800;28;20508;-86
2022/04/19 12:04:22;;;;;;;1.50;0.90;;;26.20;51.80;;;;;;5040289;28;20945;-86
2022/04/19 12:06:50;;;;;;;1.33;1.00;;;26.10;50.80;;;;;;5032160;28;20463;-87
2022/04/19 12:09:19;;;;;;;1.50;1.20;;;26.10;51.40;;;;;;5032713;28;20533;-87
2022/04/19 12:11:48;;;;;;;1.10;0.80;;;26.10;51.60;;;;;;5032602;28;20450;-86
2022/04/19 12:14:25;;;;;;;1.83;1.33;;;26.10;51.70;;;;;;5050117;28;20916;-86
2022/04/19 12:16:57;;;;;;;1.57;1.47;;;26.10;50.30;;;;;;5032927;28;20992;-85
2022/04/19 12:19:34;;;;;;;1.57;1.20;;;26.00;49.20;;;;;;5052004;28;20499;-85
2022/04/19 12:22:01;;;;;;;4.40;1.40;;;26.00;49.00;;;;;;5051922;28;20445;-85
2022/04/19 12:24:31;;;;;;;1.73;1.03;;;25.90;49.00;;;;;;5051918;28;20442;-86
2022/04/19 12:27:08;;;;;;;2.00;1.00;;;25.80;49.00;;;;;;5051967;28;20536;-86
2022/04/19 12:29:36;;;;;;;1.50;1.30;;;25.80;49.10;;;;;;5052413;28;20441;-86
2022/04/19 12:32:04;;;;;;;1.53;1.43;;;25.70;49.20;;;;;;5052490;28;20442;-86
2022/04/19 12:34:35;;;;;;;1.30;1.20;;;25.60;49.30;;;;;;5052441;28;20445;-86
2022/04/19 12:37:10;;;;;;;1.70;1.60;;;25.60;49.30;;;;;;5052385;28;20501;-85
2022/04/19 12:39:38;;;;;;;1.37;1.00;;;25.50;49.30;;;;;;5053438;28;20437;-86
2022/04/19 12:42:07;;;;;;;1.47;1.23;;;25.50;49.40;;;;;;5056144;28;20466;-85
2022/04/19 12:44:35;;;;;;;1.67;1.57;;;25.50;49.40;;;;;;5055709;28;20445;-85
2022/04/19 12:47:03;;;;;;;1.73;1.50;;;25.40;49.20;;;;;;5058832;28;20817;-87
2022/04/19 12:49:32;;;;;;;1.60;1.50;;;25.40;49.40;;;;;;5057689;28;20450;-84
2022/04/19 12:52:04;;;;;;;1.43;1.27;;;25.40;49.50;;;;;;5057053;28;20536;-82
2022/04/19 12:54:32;;;;;;;1.20;1.10;;;25.30;49.40;;;;;;5054314;28;20491;-84
2022/04/19 12:57:03;;;;;;;1.10;0.90;;;25.30;49.50;;;;;;5054138;28;20584;-84
2022/04/19 12:59:30;;;;;;;1.20;1.10;;;25.30;49.50;;;;;;5054354;28;20446;-85
2022/04/19 13:01:57;;;;;;;2.87;1.00;;;25.30;49.50;;;;;;5054464;28;20941;-86
2022/04/19 13:04:24;;;;;;;1.97;1.10;;;25.30;49.60;;;;;;5028799;28;20445;-86
2022/04/19 13:12:25;;;;;;;1.20;0.90;;;25.20;50.10;;;;;;5053627;28;20776;-86
2022/04/19 13:14:54;;;;;;;1.50;1.30;;;25.30;51.30;;;;;;5037175;28;20473;-87
2022/04/19 13:17:21;;;;;;;2.83;1.07;;;25.40;51.60;;;;;;5055025;28;20485;-87
2022/04/19 13:19:48;;;;;;;1.17;1.07;;;25.40;51.80;;;;;;5052253;28;20442;-85
2022/04/19 13:22:16;;;;;;;1.20;1.10;;;25.50;52.00;;;;;;5022526;28;20451;-86
2022/04/19 13:24:43;;;;;;;1.20;1.00;;;25.50;52.00;;;;;;5035854;28;20812;-86
2022/04/19 13:27:11;;;;;;;1.20;1.10;;;25.50;51.90;;;;;;5035817;28;20447;-86
2022/04/19 13:29:40;;;;;;;2.13;1.33;;;25.60;51.80;;;;;;5035546;28;20442;-86
2022/04/19 13:32:09;;;;;;;4.20;1.93;;;25.60;51.80;;;;;;5035712;28;20439;-86
2022/04/19 13:34:36;;;;;;;4.30;2.27;;;25.60;51.70;;;;;;5035374;28;20449;-84
2022/04/19 13:37:05;;;;;;;7.93;2.80;;;25.70;51.70;;;;;;5042926;28;20489;-86
2022/04/19 13:39:32;;;;;;;7.47;2.77;;;25.70;51.50;;;;;;5054923;28;20442;-84
2022/04/19 13:41:59;;;;;;;7.33;3.37;;;25.70;51.40;;;;;;5046778;28;20435;-84